sensor_id;sensor_type;location;lat;lon;timestamp;temperature;humidity
8664;DHT22;4369;47.842;13.096;2023-05-07T00:05:44;13.10;99.90
8664;DHT22;4369;47.842;13.096;2023-05-07T00:08:12;13.10;99.90
8664;DHT22;4369;47.842;13.096;2023-05-07T00:10:39;13.10;99.90
8664;DHT22;4369;47.842;13.096;2023-05-07T00:13:06;13.00;99.90
8664;DHT22;4369;47.842;13.096;2023-05-07T00:28:31;12.80;99.90
8664;DHT22;4369;47.842;13.096;2023-05-07T00:30:58;12.80;99.90
8664;DHT22;4369;47.842;13.096;2023-05-07T00:33:25;12.80;99.90
8664;DHT22;4369;47.842;13.096;2023-05-07T00:35:53;12.80;99.90
8664;DHT22;4369;47.842;13.096;2023-05-07T00:38:20;12.80;99.90
8664;DHT22;4369;47.842;13.096;2023-05-07T00:40:48;12.80;99.90
8664;DHT22;4369;47.842;13.096;2023-05-07T00:45:43;12.70;99.90
8664;DHT22;4369;47.842;13.096;2023-05-07T00:48:11;12.70;99.90
8664;DHT22;4369;47.842;13.096;2023-05-07T00:50:39;12.70;99.90
8664;DHT22;4369;47.842;13.096;2023-05-07T00:53:06;12.70;99.90
8664;DHT22;4369;47.842;13.096;2023-05-07T00:55:35;12.60;99.90
8664;DHT22;4369;47.842;13.096;2023-05-07T00:58:03;12.60;99.90
8664;DHT22;4369;47.842;13.096;2023-05-07T01:00:31;12.60;99.90
8664;DHT22;4369;47.842;13.096;2023-05-07T01:02:59;12.60;99.90
8664;DHT22;4369;47.842;13.096;2023-05-07T01:05:27;12.60;99.90
8664;DHT22;4369;47.842;13.096;2023-05-07T01:07:57;12.60;99.90
8664;DHT22;4369;47.842;13.096;2023-05-07T01:28:34;12.50;99.90
8664;DHT22;4369;47.842;13.096;2023-05-07T01:31:02;12.50;99.90
8664;DHT22;4369;47.842;13.096;2023-05-07T01:33:32;12.50;99.90
8664;DHT22;4369;47.842;13.096;2023-05-07T01:36:00;12.50;99.90
8664;DHT22;4369;47.842;13.096;2023-05-07T01:41:05;12.50;99.90
8664;DHT22;4369;47.842;13.096;2023-05-07T01:43:33;12.40;99.90
8664;DHT22;4369;47.842;13.096;2023-05-07T01:46:01;12.40;99.90
8664;DHT22;4369;47.842;13.096;2023-05-07T01:48:29;12.40;99.90
8664;DHT22;4369;47.842;13.096;2023-05-07T01:50:57;12.40;99.90
8664;DHT22;4369;47.842;13.096;2023-05-07T01:53:27;12.40;99.90
8664;DHT22;4369;47.842;13.096;2023-05-07T01:56:14;12.50;99.90
8664;DHT22;4369;47.842;13.096;2023-05-07T01:58:43;12.50;99.90
8664;DHT22;4369;47.842;13.096;2023-05-07T02:03:46;12.40;99.90
8664;DHT22;4369;47.842;13.096;2023-05-07T02:08:49;12.40;99.90
8664;DHT22;4369;47.842;13.096;2023-05-07T02:11:17;12.40;99.90
8664;DHT22;4369;47.842;13.096;2023-05-07T02:13:45;12.40;99.90
8664;DHT22;4369;47.842;13.096;2023-05-07T02:16:12;12.40;99.90
8664;DHT22;4369;47.842;13.096;2023-05-07T02:18:40;12.30;99.90
8664;DHT22;4369;47.842;13.096;2023-05-07T02:21:07;12.30;99.90
8664;DHT22;4369;47.842;13.096;2023-05-07T02:23:35;12.30;99.90
8664;DHT22;4369;47.842;13.096;2023-05-07T02:28:45;12.30;99.90
8664;DHT22;4369;47.842;13.096;2023-05-07T02:59:10;12.10;99.90
8664;DHT22;4369;47.842;13.096;2023-05-07T03:01:37;12.10;99.90
8664;DHT22;4369;47.842;13.096;2023-05-07T03:04:04;12.00;99.90
8664;DHT22;4369;47.842;13.096;2023-05-07T03:06:31;12.00;99.90
8664;DHT22;4369;47.842;13.096;2023-05-07T03:16:46;12.00;99.90
8664;DHT22;4369;47.842;13.096;2023-05-07T03:19:13;11.90;99.90
8664;DHT22;4369;47.842;13.096;2023-05-07T03:21:40;11.90;99.90
8664;DHT22;4369;47.842;13.096;2023-05-07T03:24:10;11.90;99.90
8664;DHT22;4369;47.842;13.096;2023-05-07T04:02:49;12.00;99.90
8664;DHT22;4369;47.842;13.096;2023-05-07T04:15:37;12.00;99.90
8664;DHT22;4369;47.842;13.096;2023-05-07T04:18:06;11.90;99.90
8664;DHT22;4369;47.842;13.096;2023-05-07T04:20:34;12.00;99.90
8664;DHT22;4369;47.842;13.096;2023-05-07T04:36:01;12.10;99.90
8664;DHT22;4369;47.842;13.096;2023-05-07T04:38:29;12.10;99.90
8664;DHT22;4369;47.842;13.096;2023-05-07T04:40:56;12.20;99.90
8664;DHT22;4369;47.842;13.096;2023-05-07T04:43:23;12.20;99.90
8664;DHT22;4369;47.842;13.096;2023-05-07T04:45:51;12.30;99.90
8664;DHT22;4369;47.842;13.096;2023-05-07T04:48:18;12.30;99.90
8664;DHT22;4369;47.842;13.096;2023-05-07T04:50:47;12.40;99.90
8664;DHT22;4369;47.842;13.096;2023-05-07T04:53:16;12.40;99.90
8664;DHT22;4369;47.842;13.096;2023-05-07T04:55:43;12.50;99.90
8664;DHT22;4369;47.842;13.096;2023-05-07T04:58:10;12.60;99.90
8664;DHT22;4369;47.842;13.096;2023-05-07T05:00:37;12.60;99.90
8664;DHT22;4369;47.842;13.096;2023-05-07T05:03:05;12.70;99.90
8664;DHT22;4369;47.842;13.096;2023-05-07T05:05:32;12.70;99.90
8664;DHT22;4369;47.842;13.096;2023-05-07T05:07:59;12.80;99.90
8664;DHT22;4369;47.842;13.096;2023-05-07T05:10:27;12.90;99.90
8664;DHT22;4369;47.842;13.096;2023-05-07T05:12:56;13.00;99.90
8664;DHT22;4369;47.842;13.096;2023-05-07T05:15:23;13.10;99.90
8664;DHT22;4369;47.842;13.096;2023-05-07T05:17:49;13.10;99.90
8664;DHT22;4369;47.842;13.096;2023-05-07T05:20:17;13.20;99.90
8664;DHT22;4369;47.842;13.096;2023-05-07T05:22:44;13.10;99.90
8664;DHT22;4369;47.842;13.096;2023-05-07T05:25:10;13.00;99.90
8664;DHT22;4369;47.842;13.096;2023-05-07T05:27:39;13.00;99.90
8664;DHT22;4369;47.842;13.096;2023-05-07T05:30:06;13.00;99.90
8664;DHT22;4369;47.842;13.096;2023-05-07T05:32:33;13.00;99.90
8664;DHT22;4369;47.842;13.096;2023-05-07T05:35:00;13.10;99.90
8664;DHT22;4369;47.842;13.096;2023-05-07T05:37:27;13.10;99.90
8664;DHT22;4369;47.842;13.096;2023-05-07T05:39:55;13.20;99.90
8664;DHT22;4369;47.842;13.096;2023-05-07T05:42:22;13.30;99.90
8664;DHT22;4369;47.842;13.096;2023-05-07T05:44:50;13.40;99.90
8664;DHT22;4369;47.842;13.096;2023-05-07T05:47:17;13.50;99.90
8664;DHT22;4369;47.842;13.096;2023-05-07T05:49:44;13.60;99.90
8664;DHT22;4369;47.842;13.096;2023-05-07T05:52:12;13.60;99.90
8664;DHT22;4369;47.842;13.096;2023-05-07T05:54:40;13.70;99.90
8664;DHT22;4369;47.842;13.096;2023-05-07T05:57:07;13.80;99.90
8664;DHT22;4369;47.842;13.096;2023-05-07T05:59:33;13.90;99.90
8664;DHT22;4369;47.842;13.096;2023-05-07T06:02:02;14.00;99.90
8664;DHT22;4369;47.842;13.096;2023-05-07T06:04:30;14.00;99.90
8664;DHT22;4369;47.842;13.096;2023-05-07T06:06:57;14.10;99.90
8664;DHT22;4369;47.842;13.096;2023-05-07T06:09:24;14.10;99.90
8664;DHT22;4369;47.842;13.096;2023-05-07T06:11:51;14.20;99.90
8664;DHT22;4369;47.842;13.096;2023-05-07T06:14:18;14.30;99.90
8664;DHT22;4369;47.842;13.096;2023-05-07T06:16:45;14.30;99.90
8664;DHT22;4369;47.842;13.096;2023-05-07T06:19:13;14.30;99.90
8664;DHT22;4369;47.842;13.096;2023-05-07T06:21:40;14.40;99.90
8664;DHT22;4369;47.842;13.096;2023-05-07T06:24:07;14.30;99.90
8664;DHT22;4369;47.842;13.096;2023-05-07T06:26:34;14.40;99.90
8664;DHT22;4369;47.842;13.096;2023-05-07T06:29:01;14.50;99.90
8664;DHT22;4369;47.842;13.096;2023-05-07T06:31:31;14.60;99.90
8664;DHT22;4369;47.842;13.096;2023-05-07T06:34:00;14.70;99.90
8664;DHT22;4369;47.842;13.096;2023-05-07T06:36:34;14.70;99.90
8664;DHT22;4369;47.842;13.096;2023-05-07T06:39:02;14.90;99.90
8664;DHT22;4369;47.842;13.096;2023-05-07T06:41:29;15.00;99.90
8664;DHT22;4369;47.842;13.096;2023-05-07T06:43:56;15.10;99.90
8664;DHT22;4369;47.842;13.096;2023-05-07T06:46:23;15.20;99.90
8664;DHT22;4369;47.842;13.096;2023-05-07T06:48:51;15.30;99.90
8664;DHT22;4369;47.842;13.096;2023-05-07T06:51:18;15.40;99.90
8664;DHT22;4369;47.842;13.096;2023-05-07T06:53:47;15.50;99.90
8664;DHT22;4369;47.842;13.096;2023-05-07T06:56:13;15.50;99.90
8664;DHT22;4369;47.842;13.096;2023-05-07T06:58:40;15.50;99.90
8664;DHT22;4369;47.842;13.096;2023-05-07T07:01:07;15.60;99.90
8664;DHT22;4369;47.842;13.096;2023-05-07T07:03:34;15.70;99.90
8664;DHT22;4369;47.842;13.096;2023-05-07T07:06:01;15.80;99.90
8664;DHT22;4369;47.842;13.096;2023-05-07T07:08:28;15.90;99.90
8664;DHT22;4369;47.842;13.096;2023-05-07T07:10:57;15.90;99.90
8664;DHT22;4369;47.842;13.096;2023-05-07T07:13:24;16.00;99.90
8664;DHT22;4369;47.842;13.096;2023-05-07T07:15:51;16.10;99.90
8664;DHT22;4369;47.842;13.096;2023-05-07T07:18:18;16.20;99.90
8664;DHT22;4369;47.842;13.096;2023-05-07T07:20:45;16.30;99.90
8664;DHT22;4369;47.842;13.096;2023-05-07T07:23:12;16.30;99.90
8664;DHT22;4369;47.842;13.096;2023-05-07T07:25:39;16.40;99.90
8664;DHT22;4369;47.842;13.096;2023-05-07T07:28:08;16.50;99.90
8664;DHT22;4369;47.842;13.096;2023-05-07T07:30:36;16.70;99.90
8664;DHT22;4369;47.842;13.096;2023-05-07T07:33:03;16.70;99.90
8664;DHT22;4369;47.842;13.096;2023-05-07T07:35:30;16.70;99.90
8664;DHT22;4369;47.842;13.096;2023-05-07T07:37:57;16.80;99.90
8664;DHT22;4369;47.842;13.096;2023-05-07T07:40:25;16.90;99.90
8664;DHT22;4369;47.842;13.096;2023-05-07T07:45:31;17.10;99.90
8664;DHT22;4369;47.842;13.096;2023-05-07T07:47:58;17.30;99.90
8664;DHT22;4369;47.842;13.096;2023-05-07T07:50:25;17.40;99.90
8664;DHT22;4369;47.842;13.096;2023-05-07T07:52:51;17.50;99.90
8664;DHT22;4369;47.842;13.096;2023-05-07T07:55:20;17.50;99.90
8664;DHT22;4369;47.842;13.096;2023-05-07T07:57:48;17.60;99.90
8664;DHT22;4369;47.842;13.096;2023-05-07T08:00:16;17.70;99.90
8664;DHT22;4369;47.842;13.096;2023-05-07T08:02:44;17.80;99.90
8664;DHT22;4369;47.842;13.096;2023-05-07T08:05:11;17.90;99.90
8664;DHT22;4369;47.842;13.096;2023-05-07T08:07:38;18.00;98.10
8664;DHT22;4369;47.842;13.096;2023-05-07T08:10:05;18.00;94.30
8664;DHT22;4369;47.842;13.096;2023-05-07T08:12:32;18.10;85.80
8664;DHT22;4369;47.842;13.096;2023-05-07T08:15:00;18.10;81.40
8664;DHT22;4369;47.842;13.096;2023-05-07T08:17:27;18.10;86.20
8664;DHT22;4369;47.842;13.096;2023-05-07T08:19:55;18.30;90.60
8664;DHT22;4369;47.842;13.096;2023-05-07T08:22:22;18.40;57.60
8664;DHT22;4369;47.842;13.096;2023-05-07T08:24:49;18.50;50.40
8664;DHT22;4369;47.842;13.096;2023-05-07T08:27:16;18.50;40.40
8664;DHT22;4369;47.842;13.096;2023-05-07T08:29:43;18.70;58.70
8664;DHT22;4369;47.842;13.096;2023-05-07T08:32:13;18.80;39.70
8664;DHT22;4369;47.842;13.096;2023-05-07T08:34:40;19.10;54.30
8664;DHT22;4369;47.842;13.096;2023-05-07T08:37:08;19.20;32.00
8664;DHT22;4369;47.842;13.096;2023-05-07T08:39:35;19.20;1.00
8664;DHT22;4369;47.842;13.096;2023-05-07T08:42:03;19.40;1.00
8664;DHT22;4369;47.842;13.096;2023-05-07T08:44:33;19.60;1.00
8664;DHT22;4369;47.842;13.096;2023-05-07T08:47:01;19.70;1.00
8664;DHT22;4369;47.842;13.096;2023-05-07T08:49:28;19.90;99.90
8664;DHT22;4369;47.842;13.096;2023-05-07T08:51:55;20.00;62.90
8664;DHT22;4369;47.842;13.096;2023-05-07T08:54:25;20.20;99.90
8664;DHT22;4369;47.842;13.096;2023-05-07T08:56:52;20.30;1.00
8664;DHT22;4369;47.842;13.096;2023-05-07T08:59:19;20.40;99.90
8664;DHT22;4369;47.842;13.096;2023-05-07T09:01:46;20.50;99.90
8664;DHT22;4369;47.842;13.096;2023-05-07T09:04:13;20.50;99.90
8664;DHT22;4369;47.842;13.096;2023-05-07T09:06:40;20.50;99.90
8664;DHT22;4369;47.842;13.096;2023-05-07T09:09:07;20.60;99.90
8664;DHT22;4369;47.842;13.096;2023-05-07T09:11:36;20.80;99.90
8664;DHT22;4369;47.842;13.096;2023-05-07T09:14:02;20.80;99.90
8664;DHT22;4369;47.842;13.096;2023-05-07T09:16:30;20.90;1.00
8664;DHT22;4369;47.842;13.096;2023-05-07T09:18:58;21.20;99.90
8664;DHT22;4369;47.842;13.096;2023-05-07T09:21:35;21.30;1.00
8664;DHT22;4369;47.842;13.096;2023-05-07T09:24:02;21.30;1.00
8664;DHT22;4369;47.842;13.096;2023-05-07T09:26:29;21.40;99.90
8664;DHT22;4369;47.842;13.096;2023-05-07T09:28:59;21.50;99.90
8664;DHT22;4369;47.842;13.096;2023-05-07T09:31:26;21.70;99.90
8664;DHT22;4369;47.842;13.096;2023-05-07T09:33:53;21.90;99.90
8664;DHT22;4369;47.842;13.096;2023-05-07T09:36:21;21.90;81.70
8664;DHT22;4369;47.842;13.096;2023-05-07T09:38:48;22.10;99.90
8664;DHT22;4369;47.842;13.096;2023-05-07T09:41:16;22.20;99.90
8664;DHT22;4369;47.842;13.096;2023-05-07T09:43:43;22.30;92.40
8664;DHT22;4369;47.842;13.096;2023-05-07T09:46:14;22.50;48.40
8664;DHT22;4369;47.842;13.096;2023-05-07T09:48:43;22.50;1.00
8664;DHT22;4369;47.842;13.096;2023-05-07T09:51:24;22.60;1.00
8664;DHT22;4369;47.842;13.096;2023-05-07T09:53:53;22.90;1.00
8664;DHT22;4369;47.842;13.096;2023-05-07T09:56:20;23.00;1.00
8664;DHT22;4369;47.842;13.096;2023-05-07T09:58:48;23.20;1.00
8664;DHT22;4369;47.842;13.096;2023-05-07T10:01:19;23.30;1.00
8664;DHT22;4369;47.842;13.096;2023-05-07T10:03:48;23.50;1.00
8664;DHT22;4369;47.842;13.096;2023-05-07T10:06:16;23.60;1.00
8664;DHT22;4369;47.842;13.096;2023-05-07T10:08:44;23.80;1.00
8664;DHT22;4369;47.842;13.096;2023-05-07T10:11:11;23.90;1.00
8664;DHT22;4369;47.842;13.096;2023-05-07T10:13:41;24.00;1.00
8664;DHT22;4369;47.842;13.096;2023-05-07T10:16:09;24.20;1.00
8664;DHT22;4369;47.842;13.096;2023-05-07T10:18:38;24.50;1.00
8664;DHT22;4369;47.842;13.096;2023-05-07T10:21:08;24.70;1.00
8664;DHT22;4369;47.842;13.096;2023-05-07T10:23:35;24.90;1.00
8664;DHT22;4369;47.842;13.096;2023-05-07T10:26:05;24.90;1.00
8664;DHT22;4369;47.842;13.096;2023-05-07T10:28:38;25.10;1.00
8664;DHT22;4369;47.842;13.096;2023-05-07T10:31:18;24.90;1.00
8664;DHT22;4369;47.842;13.096;2023-05-07T10:33:53;24.90;1.00
8664;DHT22;4369;47.842;13.096;2023-05-07T10:36:21;25.30;1.00
8664;DHT22;4369;47.842;13.096;2023-05-07T10:38:49;25.40;1.00
8664;DHT22;4369;47.842;13.096;2023-05-07T10:41:16;25.70;1.00
8664;DHT22;4369;47.842;13.096;2023-05-07T10:43:45;25.60;1.00
8664;DHT22;4369;47.842;13.096;2023-05-07T10:46:15;25.70;1.00
8664;DHT22;4369;47.842;13.096;2023-05-07T10:49:09;25.80;1.00
8664;DHT22;4369;47.842;13.096;2023-05-07T10:51:38;26.20;1.00
8664;DHT22;4369;47.842;13.096;2023-05-07T10:54:22;26.30;1.00
8664;DHT22;4369;47.842;13.096;2023-05-07T10:56:50;26.40;1.00
8664;DHT22;4369;47.842;13.096;2023-05-07T10:59:47;26.40;1.00
8664;DHT22;4369;47.842;13.096;2023-05-07T11:02:14;26.40;1.00
8664;DHT22;4369;47.842;13.096;2023-05-07T11:04:42;26.40;1.00
8664;DHT22;4369;47.842;13.096;2023-05-07T11:07:27;26.50;1.00
8664;DHT22;4369;47.842;13.096;2023-05-07T11:09:55;26.60;1.00
8664;DHT22;4369;47.842;13.096;2023-05-07T11:12:51;26.70;1.00
8664;DHT22;4369;47.842;13.096;2023-05-07T11:15:35;26.90;1.00
8664;DHT22;4369;47.842;13.096;2023-05-07T11:18:02;27.30;1.00
8664;DHT22;4369;47.842;13.096;2023-05-07T11:21:01;27.50;1.00
8664;DHT22;4369;47.842;13.096;2023-05-07T11:23:56;27.70;1.00
8664;DHT22;4369;47.842;13.096;2023-05-07T11:26:28;27.90;1.00
8664;DHT22;4369;47.842;13.096;2023-05-07T11:28:55;28.00;1.00
8664;DHT22;4369;47.842;13.096;2023-05-07T11:31:24;28.10;1.00
8664;DHT22;4369;47.842;13.096;2023-05-07T11:33:52;28.20;1.00
8664;DHT22;4369;47.842;13.096;2023-05-07T11:36:22;27.90;1.00
8664;DHT22;4369;47.842;13.096;2023-05-07T11:38:49;28.10;1.00
8664;DHT22;4369;47.842;13.096;2023-05-07T11:41:16;28.20;1.00
8664;DHT22;4369;47.842;13.096;2023-05-07T11:43:55;28.20;1.00
8664;DHT22;4369;47.842;13.096;2023-05-07T11:46:22;28.60;1.00
8664;DHT22;4369;47.842;13.096;2023-05-07T11:48:49;28.50;1.00
8664;DHT22;4369;47.842;13.096;2023-05-07T11:51:22;28.70;1.00
8664;DHT22;4369;47.842;13.096;2023-05-07T11:53:50;28.70;1.00
8664;DHT22;4369;47.842;13.096;2023-05-07T11:56:18;29.00;1.00
8664;DHT22;4369;47.842;13.096;2023-05-07T11:58:46;29.10;1.00
8664;DHT22;4369;47.842;13.096;2023-05-07T12:01:14;29.30;1.00
8664;DHT22;4369;47.842;13.096;2023-05-07T12:03:43;29.30;1.00
8664;DHT22;4369;47.842;13.096;2023-05-07T12:06:12;29.50;1.00
8664;DHT22;4369;47.842;13.096;2023-05-07T12:08:41;29.50;1.00
8664;DHT22;4369;47.842;13.096;2023-05-07T12:11:10;29.70;1.00
8664;DHT22;4369;47.842;13.096;2023-05-07T12:13:39;29.60;1.00
8664;DHT22;4369;47.842;13.096;2023-05-07T12:16:07;29.70;1.00
8664;DHT22;4369;47.842;13.096;2023-05-07T12:18:35;29.70;1.00
8664;DHT22;4369;47.842;13.096;2023-05-07T12:21:04;29.60;1.00
8664;DHT22;4369;47.842;13.096;2023-05-07T12:23:33;29.70;1.00
8664;DHT22;4369;47.842;13.096;2023-05-07T12:26:02;29.70;1.00
8664;DHT22;4369;47.842;13.096;2023-05-07T12:28:29;30.10;1.00
8664;DHT22;4369;47.842;13.096;2023-05-07T12:30:57;30.20;1.00
8664;DHT22;4369;47.842;13.096;2023-05-07T12:33:25;30.10;1.00
8664;DHT22;4369;47.842;13.096;2023-05-07T12:35:54;30.20;1.00
8664;DHT22;4369;47.842;13.096;2023-05-07T12:38:22;30.40;1.00
8664;DHT22;4369;47.842;13.096;2023-05-07T12:40:50;30.30;1.00
8664;DHT22;4369;47.842;13.096;2023-05-07T12:43:19;30.20;1.00
8664;DHT22;4369;47.842;13.096;2023-05-07T12:45:48;30.20;1.00
8664;DHT22;4369;47.842;13.096;2023-05-07T12:48:15;30.50;1.00
8664;DHT22;4369;47.842;13.096;2023-05-07T12:50:42;30.50;1.00
8664;DHT22;4369;47.842;13.096;2023-05-07T12:53:10;30.70;1.00
8664;DHT22;4369;47.842;13.096;2023-05-07T12:55:42;30.80;1.00
8664;DHT22;4369;47.842;13.096;2023-05-07T12:58:15;30.40;1.00
8664;DHT22;4369;47.842;13.096;2023-05-07T13:00:44;30.40;1.00
8664;DHT22;4369;47.842;13.096;2023-05-07T13:03:12;31.00;1.00
8664;DHT22;4369;47.842;13.096;2023-05-07T13:05:39;31.50;1.00
8664;DHT22;4369;47.842;13.096;2023-05-07T13:08:06;31.80;1.00
8664;DHT22;4369;47.842;13.096;2023-05-07T13:10:35;31.90;1.00
8664;DHT22;4369;47.842;13.096;2023-05-07T13:13:02;32.20;1.00
8664;DHT22;4369;47.842;13.096;2023-05-07T13:15:29;32.10;1.00
8664;DHT22;4369;47.842;13.096;2023-05-07T13:17:57;32.70;1.00
8664;DHT22;4369;47.842;13.096;2023-05-07T13:20:24;32.70;1.00
8664;DHT22;4369;47.842;13.096;2023-05-07T13:22:51;32.50;1.00
8664;DHT22;4369;47.842;13.096;2023-05-07T13:25:18;32.30;1.00
8664;DHT22;4369;47.842;13.096;2023-05-07T13:27:45;32.80;1.00
8664;DHT22;4369;47.842;13.096;2023-05-07T13:30:12;33.60;1.00
8664;DHT22;4369;47.842;13.096;2023-05-07T13:32:39;33.60;1.00
8664;DHT22;4369;47.842;13.096;2023-05-07T13:35:08;35.10;1.00
8664;DHT22;4369;47.842;13.096;2023-05-07T13:37:35;35.30;1.00
8664;DHT22;4369;47.842;13.096;2023-05-07T13:40:02;35.60;1.00
8664;DHT22;4369;47.842;13.096;2023-05-07T13:42:30;36.00;1.00
8664;DHT22;4369;47.842;13.096;2023-05-07T13:44:57;36.10;1.00
8664;DHT22;4369;47.842;13.096;2023-05-07T13:47:24;36.10;1.00
8664;DHT22;4369;47.842;13.096;2023-05-07T13:49:51;35.80;1.00
8664;DHT22;4369;47.842;13.096;2023-05-07T13:52:19;36.10;1.00
8664;DHT22;4369;47.842;13.096;2023-05-07T13:54:46;36.40;1.00
8664;DHT22;4369;47.842;13.096;2023-05-07T13:57:13;37.20;1.00
8664;DHT22;4369;47.842;13.096;2023-05-07T13:59:40;38.30;1.00
8664;DHT22;4369;47.842;13.096;2023-05-07T14:02:07;39.60;1.00
8664;DHT22;4369;47.842;13.096;2023-05-07T14:04:35;40.20;1.00
8664;DHT22;4369;47.842;13.096;2023-05-07T14:07:01;41.10;1.00
8664;DHT22;4369;47.842;13.096;2023-05-07T14:09:30;41.00;1.00
8664;DHT22;4369;47.842;13.096;2023-05-07T14:11:57;40.50;1.00
8664;DHT22;4369;47.842;13.096;2023-05-07T14:14:23;39.20;1.00
8664;DHT22;4369;47.842;13.096;2023-05-07T14:16:50;37.50;1.00
8664;DHT22;4369;47.842;13.096;2023-05-07T14:19:17;37.40;1.00
8664;DHT22;4369;47.842;13.096;2023-05-07T14:21:44;36.80;1.00
8664;DHT22;4369;47.842;13.096;2023-05-07T14:24:11;37.50;1.00
8664;DHT22;4369;47.842;13.096;2023-05-07T14:26:39;37.40;1.00
8664;DHT22;4369;47.842;13.096;2023-05-07T14:29:06;37.40;1.00
8664;DHT22;4369;47.842;13.096;2023-05-07T14:31:33;36.60;1.00
8664;DHT22;4369;47.842;13.096;2023-05-07T14:34:00;37.40;1.00
8664;DHT22;4369;47.842;13.096;2023-05-07T14:36:27;38.00;1.00
8664;DHT22;4369;47.842;13.096;2023-05-07T14:38:55;38.30;1.00
8664;DHT22;4369;47.842;13.096;2023-05-07T14:41:24;39.00;1.00
8664;DHT22;4369;47.842;13.096;2023-05-07T14:43:53;38.70;1.00
8664;DHT22;4369;47.842;13.096;2023-05-07T14:46:19;38.30;1.00
8664;DHT22;4369;47.842;13.096;2023-05-07T14:48:46;37.00;1.00
8664;DHT22;4369;47.842;13.096;2023-05-07T14:51:14;36.00;1.00
8664;DHT22;4369;47.842;13.096;2023-05-07T14:53:41;35.10;1.00
8664;DHT22;4369;47.842;13.096;2023-05-07T14:56:08;34.60;1.00
8664;DHT22;4369;47.842;13.096;2023-05-07T14:58:35;34.20;1.00
8664;DHT22;4369;47.842;13.096;2023-05-07T15:01:04;33.80;1.00
8664;DHT22;4369;47.842;13.096;2023-05-07T15:03:31;33.40;1.00
8664;DHT22;4369;47.842;13.096;2023-05-07T15:05:58;33.30;1.00
8664;DHT22;4369;47.842;13.096;2023-05-07T15:08:25;32.30;1.00
8664;DHT22;4369;47.842;13.096;2023-05-07T15:10:52;31.70;1.00
8664;DHT22;4369;47.842;13.096;2023-05-07T15:13:21;31.10;1.00
8664;DHT22;4369;47.842;13.096;2023-05-07T15:15:48;30.40;1.00
8664;DHT22;4369;47.842;13.096;2023-05-07T15:18:16;29.60;1.00
8664;DHT22;4369;47.842;13.096;2023-05-07T15:20:43;28.80;1.00
8664;DHT22;4369;47.842;13.096;2023-05-07T15:23:10;28.40;1.00
8664;DHT22;4369;47.842;13.096;2023-05-07T15:25:39;28.20;1.00
8664;DHT22;4369;47.842;13.096;2023-05-07T15:28:06;27.60;1.00
8664;DHT22;4369;47.842;13.096;2023-05-07T15:30:33;27.20;1.00
8664;DHT22;4369;47.842;13.096;2023-05-07T15:33:01;26.60;1.00
8664;DHT22;4369;47.842;13.096;2023-05-07T15:35:29;26.30;1.00
8664;DHT22;4369;47.842;13.096;2023-05-07T15:37:56;26.00;1.00
8664;DHT22;4369;47.842;13.096;2023-05-07T15:40:23;25.60;1.00
8664;DHT22;4369;47.842;13.096;2023-05-07T15:42:54;25.20;1.00
8664;DHT22;4369;47.842;13.096;2023-05-07T15:45:21;24.90;1.00
8664;DHT22;4369;47.842;13.096;2023-05-07T15:47:48;24.80;1.00
8664;DHT22;4369;47.842;13.096;2023-05-07T15:50:15;24.60;1.00
8664;DHT22;4369;47.842;13.096;2023-05-07T15:52:44;24.50;1.00
8664;DHT22;4369;47.842;13.096;2023-05-07T15:55:15;24.40;1.00
8664;DHT22;4369;47.842;13.096;2023-05-07T15:58:03;24.10;1.00
8664;DHT22;4369;47.842;13.096;2023-05-07T16:00:31;23.90;1.00
8664;DHT22;4369;47.842;13.096;2023-05-07T16:05:51;23.70;1.00
8664;DHT22;4369;47.842;13.096;2023-05-07T16:11:41;23.50;1.00
8664;DHT22;4369;47.842;13.096;2023-05-07T16:14:08;23.30;1.00
8664;DHT22;4369;47.842;13.096;2023-05-07T16:16:44;23.10;1.00
8664;DHT22;4369;47.842;13.096;2023-05-07T16:19:11;23.00;1.00
8664;DHT22;4369;47.842;13.096;2023-05-07T16:21:38;23.00;1.00
8664;DHT22;4369;47.842;13.096;2023-05-07T16:24:07;22.80;1.00
8664;DHT22;4369;47.842;13.096;2023-05-07T16:26:34;22.60;1.00
8664;DHT22;4369;47.842;13.096;2023-05-07T16:29:02;22.50;1.00
8664;DHT22;4369;47.842;13.096;2023-05-07T16:31:30;22.40;1.00
8664;DHT22;4369;47.842;13.096;2023-05-07T16:33:56;22.30;1.00
8664;DHT22;4369;47.842;13.096;2023-05-07T16:36:26;22.20;1.00
8664;DHT22;4369;47.842;13.096;2023-05-07T16:38:53;22.00;1.00
8664;DHT22;4369;47.842;13.096;2023-05-07T16:41:21;21.90;1.00
8664;DHT22;4369;47.842;13.096;2023-05-07T16:43:48;21.80;1.00
8664;DHT22;4369;47.842;13.096;2023-05-07T16:46:15;21.70;1.00
8664;DHT22;4369;47.842;13.096;2023-05-07T16:48:42;21.50;1.00
8664;DHT22;4369;47.842;13.096;2023-05-07T16:51:09;21.40;1.00
8664;DHT22;4369;47.842;13.096;2023-05-07T16:53:36;21.30;1.00
8664;DHT22;4369;47.842;13.096;2023-05-07T16:56:04;21.30;1.00
8664;DHT22;4369;47.842;13.096;2023-05-07T16:58:32;21.30;1.00
8664;DHT22;4369;47.842;13.096;2023-05-07T17:00:59;21.20;1.00
8664;DHT22;4369;47.842;13.096;2023-05-07T17:03:27;21.10;1.00
8664;DHT22;4369;47.842;13.096;2023-05-07T17:05:54;21.10;1.00
8664;DHT22;4369;47.842;13.096;2023-05-07T17:08:21;21.10;1.00
8664;DHT22;4369;47.842;13.096;2023-05-07T17:10:48;21.00;1.00
8664;DHT22;4369;47.842;13.096;2023-05-07T17:13:15;21.00;1.00
8664;DHT22;4369;47.842;13.096;2023-05-07T17:15:43;21.00;1.00
8664;DHT22;4369;47.842;13.096;2023-05-07T17:18:12;21.00;1.00
8664;DHT22;4369;47.842;13.096;2023-05-07T17:20:38;20.90;1.00
8664;DHT22;4369;47.842;13.096;2023-05-07T17:23:05;20.80;1.00
8664;DHT22;4369;47.842;13.096;2023-05-07T17:25:34;20.70;1.00
8664;DHT22;4369;47.842;13.096;2023-05-07T17:28:01;20.60;1.00
8664;DHT22;4369;47.842;13.096;2023-05-07T17:30:28;20.50;1.00
8664;DHT22;4369;47.842;13.096;2023-05-07T17:32:56;20.40;1.00
8664;DHT22;4369;47.842;13.096;2023-05-07T17:35:23;20.50;1.00
8664;DHT22;4369;47.842;13.096;2023-05-07T17:37:51;20.40;1.00
8664;DHT22;4369;47.842;13.096;2023-05-07T17:40:19;20.30;1.00
8664;DHT22;4369;47.842;13.096;2023-05-07T17:42:46;20.30;1.00
8664;DHT22;4369;47.842;13.096;2023-05-07T17:45:14;20.10;1.00
8664;DHT22;4369;47.842;13.096;2023-05-07T17:47:41;20.00;1.00
8664;DHT22;4369;47.842;13.096;2023-05-07T17:50:10;19.90;1.00
8664;DHT22;4369;47.842;13.096;2023-05-07T17:52:39;19.80;1.00
8664;DHT22;4369;47.842;13.096;2023-05-07T17:55:07;19.70;1.00
8664;DHT22;4369;47.842;13.096;2023-05-07T17:57:34;19.60;1.00
8664;DHT22;4369;47.842;13.096;2023-05-07T18:00:01;19.60;1.00
8664;DHT22;4369;47.842;13.096;2023-05-07T18:02:29;19.40;1.00
8664;DHT22;4369;47.842;13.096;2023-05-07T18:04:56;19.40;1.00
8664;DHT22;4369;47.842;13.096;2023-05-07T18:07:25;19.40;1.00
8664;DHT22;4369;47.842;13.096;2023-05-07T18:09:52;19.30;1.00
8664;DHT22;4369;47.842;13.096;2023-05-07T18:12:19;19.20;1.00
8664;DHT22;4369;47.842;13.096;2023-05-07T18:14:45;19.20;1.00
8664;DHT22;4369;47.842;13.096;2023-05-07T18:17:13;19.20;1.00
8664;DHT22;4369;47.842;13.096;2023-05-07T18:19:40;19.10;1.00
8664;DHT22;4369;47.842;13.096;2023-05-07T18:22:07;19.10;1.00
8664;DHT22;4369;47.842;13.096;2023-05-07T18:24:35;19.00;1.00
8664;DHT22;4369;47.842;13.096;2023-05-07T18:27:02;18.90;12.60
8664;DHT22;4369;47.842;13.096;2023-05-07T18:29:30;18.80;3.50
8664;DHT22;4369;47.842;13.096;2023-05-07T18:31:56;18.70;8.50
8664;DHT22;4369;47.842;13.096;2023-05-07T18:34:23;18.70;41.60